sensor_id;sensor_type;location;lat;lon;timestamp;temperature;humidity
29917;DHT22;16786;49.466;11.068;2023-01-16T00:01:57;2.10;99.90
29917;DHT22;16786;49.466;11.068;2023-01-16T00:04:24;2.10;99.90
29917;DHT22;16786;49.466;11.068;2023-01-16T00:06:52;2.20;99.90
29917;DHT22;16786;49.466;11.068;2023-01-16T00:09:20;2.30;99.90
29917;DHT22;16786;49.466;11.068;2023-01-16T00:11:47;2.30;99.90
29917;DHT22;16786;49.466;11.068;2023-01-16T00:14:14;2.30;99.90
29917;DHT22;16786;49.466;11.068;2023-01-16T00:16:41;2.20;99.90
29917;DHT22;16786;49.466;11.068;2023-01-16T00:19:09;2.20;99.90
29917;DHT22;16786;49.466;11.068;2023-01-16T00:21:36;2.20;99.90
29917;DHT22;16786;49.466;11.068;2023-01-16T00:24:04;2.20;99.90
29917;DHT22;16786;49.466;11.068;2023-01-16T00:26:33;2.20;99.90
29917;DHT22;16786;49.466;11.068;2023-01-16T00:29:01;2.20;99.90
29917;DHT22;16786;49.466;11.068;2023-01-16T00:31:29;2.30;99.90
29917;DHT22;16786;49.466;11.068;2023-01-16T00:33:56;2.30;99.90
29917;DHT22;16786;49.466;11.068;2023-01-16T00:36:24;2.30;99.90
29917;DHT22;16786;49.466;11.068;2023-01-16T00:38:51;2.30;99.90
29917;DHT22;16786;49.466;11.068;2023-01-16T00:41:18;2.30;99.90
29917;DHT22;16786;49.466;11.068;2023-01-16T00:43:46;2.20;99.90
29917;DHT22;16786;49.466;11.068;2023-01-16T00:46:13;2.20;99.90
29917;DHT22;16786;49.466;11.068;2023-01-16T00:48:40;2.20;99.90
29917;DHT22;16786;49.466;11.068;2023-01-16T00:51:07;2.20;99.90
29917;DHT22;16786;49.466;11.068;2023-01-16T00:53:35;2.20;99.90
29917;DHT22;16786;49.466;11.068;2023-01-16T00:56:02;2.20;99.90
29917;DHT22;16786;49.466;11.068;2023-01-16T00:58:30;2.10;99.90
29917;DHT22;16786;49.466;11.068;2023-01-16T01:00:59;2.00;99.90
29917;DHT22;16786;49.466;11.068;2023-01-16T01:03:27;2.10;99.90
29917;DHT22;16786;49.466;11.068;2023-01-16T01:05:55;2.10;99.90
29917;DHT22;16786;49.466;11.068;2023-01-16T01:08:22;2.10;99.90
29917;DHT22;16786;49.466;11.068;2023-01-16T01:10:50;2.10;99.90
29917;DHT22;16786;49.466;11.068;2023-01-16T01:13:17;2.10;99.90
29917;DHT22;16786;49.466;11.068;2023-01-16T01:15:44;2.10;99.90
29917;DHT22;16786;49.466;11.068;2023-01-16T01:18:12;2.10;99.90
29917;DHT22;16786;49.466;11.068;2023-01-16T01:20:39;2.20;99.90
29917;DHT22;16786;49.466;11.068;2023-01-16T01:23:06;2.20;99.90
29917;DHT22;16786;49.466;11.068;2023-01-16T01:25:37;2.20;99.90
29917;DHT22;16786;49.466;11.068;2023-01-16T01:28:05;2.20;99.90
29917;DHT22;16786;49.466;11.068;2023-01-16T01:30:32;2.30;99.90
29917;DHT22;16786;49.466;11.068;2023-01-16T01:32:59;2.30;99.90
29917;DHT22;16786;49.466;11.068;2023-01-16T01:35:27;2.20;99.90
29917;DHT22;16786;49.466;11.068;2023-01-16T01:37:54;2.20;99.90
29917;DHT22;16786;49.466;11.068;2023-01-16T01:40:22;2.20;99.90
29917;DHT22;16786;49.466;11.068;2023-01-16T01:42:49;2.20;99.90
29917;DHT22;16786;49.466;11.068;2023-01-16T01:45:27;2.20;99.90
29917;DHT22;16786;49.466;11.068;2023-01-16T01:53:35;2.30;99.90
29917;DHT22;16786;49.466;11.068;2023-01-16T01:56:08;2.30;99.90
29917;DHT22;16786;49.466;11.068;2023-01-16T01:58:37;2.20;99.90
29917;DHT22;16786;49.466;11.068;2023-01-16T02:01:12;2.20;99.90
29917;DHT22;16786;49.466;11.068;2023-01-16T02:03:42;2.10;99.90
29917;DHT22;16786;49.466;11.068;2023-01-16T02:06:18;2.10;99.90
29917;DHT22;16786;49.466;11.068;2023-01-16T02:08:48;2.10;99.90
29917;DHT22;16786;49.466;11.068;2023-01-16T02:11:33;2.00;99.90
29917;DHT22;16786;49.466;11.068;2023-01-16T02:14:08;2.10;99.90
29917;DHT22;16786;49.466;11.068;2023-01-16T02:16:37;2.20;99.90
29917;DHT22;16786;49.466;11.068;2023-01-16T02:22:25;2.20;99.90
29917;DHT22;16786;49.466;11.068;2023-01-16T02:41:58;2.40;99.90
29917;DHT22;16786;49.466;11.068;2023-01-16T02:44:50;2.50;99.90
29917;DHT22;16786;49.466;11.068;2023-01-16T02:55:56;2.60;99.90
29917;DHT22;16786;49.466;11.068;2023-01-16T02:58:26;2.60;99.90
29917;DHT22;16786;49.466;11.068;2023-01-16T03:00:56;2.70;99.90
29917;DHT22;16786;49.466;11.068;2023-01-16T03:03:47;2.70;99.90
29917;DHT22;16786;49.466;11.068;2023-01-16T03:11:21;2.70;99.90
29917;DHT22;16786;49.466;11.068;2023-01-16T03:22:21;2.70;99.90
29917;DHT22;16786;49.466;11.068;2023-01-16T03:36:10;2.90;99.90
29917;DHT22;16786;49.466;11.068;2023-01-16T03:38:40;2.90;99.90
29917;DHT22;16786;49.466;11.068;2023-01-16T03:41:10;2.90;99.90
29917;DHT22;16786;49.466;11.068;2023-01-16T03:43:43;2.90;99.90
29917;DHT22;16786;49.466;11.068;2023-01-16T03:46:28;2.90;99.90
29917;DHT22;16786;49.466;11.068;2023-01-16T03:51:53;2.70;99.90
29917;DHT22;16786;49.466;11.068;2023-01-16T03:54:36;2.60;99.90
29917;DHT22;16786;49.466;11.068;2023-01-16T03:57:29;2.50;99.90
29917;DHT22;16786;49.466;11.068;2023-01-16T03:59:59;2.40;99.90
29917;DHT22;16786;49.466;11.068;2023-01-16T04:05:23;2.20;99.90
29917;DHT22;16786;49.466;11.068;2023-01-16T04:10:25;2.10;99.90
29917;DHT22;16786;49.466;11.068;2023-01-16T04:12:57;2.00;99.90
29917;DHT22;16786;49.466;11.068;2023-01-16T04:15:28;2.00;99.90
29917;DHT22;16786;49.466;11.068;2023-01-16T04:17:57;1.90;99.90
29917;DHT22;16786;49.466;11.068;2023-01-16T04:20:25;1.90;99.90
29917;DHT22;16786;49.466;11.068;2023-01-16T04:22:54;1.80;99.90
29917;DHT22;16786;49.466;11.068;2023-01-16T04:25:21;1.80;99.90
29917;DHT22;16786;49.466;11.068;2023-01-16T04:27:49;1.80;99.90
29917;DHT22;16786;49.466;11.068;2023-01-16T04:30:16;1.70;99.90
29917;DHT22;16786;49.466;11.068;2023-01-16T04:32:43;1.70;99.90
29917;DHT22;16786;49.466;11.068;2023-01-16T04:35:11;1.70;99.90
29917;DHT22;16786;49.466;11.068;2023-01-16T04:37:38;1.70;99.90
29917;DHT22;16786;49.466;11.068;2023-01-16T04:40:06;1.60;99.90
29917;DHT22;16786;49.466;11.068;2023-01-16T04:42:35;1.60;99.90
29917;DHT22;16786;49.466;11.068;2023-01-16T04:45:03;1.60;99.90
29917;DHT22;16786;49.466;11.068;2023-01-16T04:47:31;1.50;99.90
29917;DHT22;16786;49.466;11.068;2023-01-16T04:49:58;1.50;99.90
29917;DHT22;16786;49.466;11.068;2023-01-16T04:52:25;1.40;99.90
29917;DHT22;16786;49.466;11.068;2023-01-16T04:54:52;1.40;99.90
29917;DHT22;16786;49.466;11.068;2023-01-16T04:57:20;1.40;99.90
29917;DHT22;16786;49.466;11.068;2023-01-16T04:59:47;1.30;99.90
29917;DHT22;16786;49.466;11.068;2023-01-16T05:02:14;1.20;99.90
29917;DHT22;16786;49.466;11.068;2023-01-16T05:04:42;1.10;99.90
29917;DHT22;16786;49.466;11.068;2023-01-16T05:07:09;1.10;99.90
29917;DHT22;16786;49.466;11.068;2023-01-16T05:09:36;1.00;99.90
29917;DHT22;16786;49.466;11.068;2023-01-16T05:12:04;1.00;99.90
29917;DHT22;16786;49.466;11.068;2023-01-16T05:14:31;1.00;99.90
29917;DHT22;16786;49.466;11.068;2023-01-16T05:16:58;1.00;99.90
29917;DHT22;16786;49.466;11.068;2023-01-16T05:19:26;0.90;99.90
29917;DHT22;16786;49.466;11.068;2023-01-16T05:21:53;0.80;99.90
29917;DHT22;16786;49.466;11.068;2023-01-16T05:24:20;0.80;99.90
29917;DHT22;16786;49.466;11.068;2023-01-16T05:26:49;0.70;99.90
29917;DHT22;16786;49.466;11.068;2023-01-16T05:29:16;0.70;99.90
29917;DHT22;16786;49.466;11.068;2023-01-16T05:31:44;0.60;99.90
29917;DHT22;16786;49.466;11.068;2023-01-16T05:34:11;0.70;99.90
29917;DHT22;16786;49.466;11.068;2023-01-16T05:36:38;0.60;99.90
29917;DHT22;16786;49.466;11.068;2023-01-16T05:39:06;0.60;99.90
29917;DHT22;16786;49.466;11.068;2023-01-16T05:41:33;0.70;99.90
29917;DHT22;16786;49.466;11.068;2023-01-16T05:44:00;0.70;99.90
29917;DHT22;16786;49.466;11.068;2023-01-16T05:46:27;0.70;99.90
29917;DHT22;16786;49.466;11.068;2023-01-16T05:48:55;0.60;99.90
29917;DHT22;16786;49.466;11.068;2023-01-16T05:51:22;0.70;99.90
29917;DHT22;16786;49.466;11.068;2023-01-16T05:53:50;0.70;99.90
29917;DHT22;16786;49.466;11.068;2023-01-16T05:56:21;0.70;99.90
29917;DHT22;16786;49.466;11.068;2023-01-16T05:58:49;0.70;99.90
29917;DHT22;16786;49.466;11.068;2023-01-16T06:01:16;0.70;99.90
29917;DHT22;16786;49.466;11.068;2023-01-16T06:03:43;0.70;99.90
29917;DHT22;16786;49.466;11.068;2023-01-16T06:06:11;0.70;99.90
29917;DHT22;16786;49.466;11.068;2023-01-16T06:08:38;0.70;99.90
29917;DHT22;16786;49.466;11.068;2023-01-16T06:11:05;0.70;99.90
29917;DHT22;16786;49.466;11.068;2023-01-16T06:13:33;0.70;99.90
29917;DHT22;16786;49.466;11.068;2023-01-16T06:16:00;0.70;99.90
29917;DHT22;16786;49.466;11.068;2023-01-16T06:18:27;0.70;99.90
29917;DHT22;16786;49.466;11.068;2023-01-16T06:20:54;0.70;99.90
29917;DHT22;16786;49.466;11.068;2023-01-16T06:23:22;0.60;99.90
29917;DHT22;16786;49.466;11.068;2023-01-16T06:25:49;0.60;99.90
29917;DHT22;16786;49.466;11.068;2023-01-16T06:28:17;0.70;99.90
29917;DHT22;16786;49.466;11.068;2023-01-16T06:30:44;0.70;99.90
29917;DHT22;16786;49.466;11.068;2023-01-16T06:33:11;0.70;99.90
29917;DHT22;16786;49.466;11.068;2023-01-16T06:35:39;0.60;99.90
29917;DHT22;16786;49.466;11.068;2023-01-16T06:38:06;0.60;99.90
29917;DHT22;16786;49.466;11.068;2023-01-16T06:40:33;0.60;99.90
29917;DHT22;16786;49.466;11.068;2023-01-16T06:43:00;0.70;99.90
29917;DHT22;16786;49.466;11.068;2023-01-16T06:45:28;0.80;99.90
29917;DHT22;16786;49.466;11.068;2023-01-16T06:47:55;0.80;99.90
29917;DHT22;16786;49.466;11.068;2023-01-16T06:50:22;0.70;99.90
29917;DHT22;16786;49.466;11.068;2023-01-16T06:52:50;0.80;99.90
29917;DHT22;16786;49.466;11.068;2023-01-16T06:55:17;0.70;99.90
29917;DHT22;16786;49.466;11.068;2023-01-16T06:57:44;0.70;99.90
29917;DHT22;16786;49.466;11.068;2023-01-16T07:00:12;0.70;99.90
29917;DHT22;16786;49.466;11.068;2023-01-16T07:02:40;0.70;99.90
29917;DHT22;16786;49.466;11.068;2023-01-16T07:05:09;0.70;99.90
29917;DHT22;16786;49.466;11.068;2023-01-16T07:07:36;0.70;99.90
29917;DHT22;16786;49.466;11.068;2023-01-16T07:10:04;0.80;99.90
29917;DHT22;16786;49.466;11.068;2023-01-16T07:12:31;0.80;99.90
29917;DHT22;16786;49.466;11.068;2023-01-16T07:14:59;0.70;99.90
29917;DHT22;16786;49.466;11.068;2023-01-16T07:17:44;0.80;99.90
29917;DHT22;16786;49.466;11.068;2023-01-16T07:20:31;0.90;99.90
29917;DHT22;16786;49.466;11.068;2023-01-16T07:23:21;1.00;99.90
29917;DHT22;16786;49.466;11.068;2023-01-16T07:25:49;1.10;99.90
29917;DHT22;16786;49.466;11.068;2023-01-16T07:28:20;1.10;99.90
29917;DHT22;16786;49.466;11.068;2023-01-16T07:30:48;1.20;99.90
29917;DHT22;16786;49.466;11.068;2023-01-16T07:33:16;1.20;99.90
29917;DHT22;16786;49.466;11.068;2023-01-16T07:35:44;1.20;99.90
29917;DHT22;16786;49.466;11.068;2023-01-16T07:38:12;1.30;99.90
29917;DHT22;16786;49.466;11.068;2023-01-16T07:40:39;1.30;99.90
29917;DHT22;16786;49.466;11.068;2023-01-16T07:43:07;1.30;99.90
29917;DHT22;16786;49.466;11.068;2023-01-16T07:45:34;1.40;99.90
29917;DHT22;16786;49.466;11.068;2023-01-16T07:48:02;1.50;99.90
29917;DHT22;16786;49.466;11.068;2023-01-16T07:50:29;1.60;99.90
29917;DHT22;16786;49.466;11.068;2023-01-16T07:52:57;1.70;99.90
29917;DHT22;16786;49.466;11.068;2023-01-16T07:55:24;1.80;99.90
29917;DHT22;16786;49.466;11.068;2023-01-16T07:57:51;1.90;99.90
29917;DHT22;16786;49.466;11.068;2023-01-16T08:00:19;1.90;99.90
29917;DHT22;16786;49.466;11.068;2023-01-16T08:02:46;2.00;99.90
29917;DHT22;16786;49.466;11.068;2023-01-16T08:05:14;2.10;99.90
29917;DHT22;16786;49.466;11.068;2023-01-16T08:07:41;2.20;99.90
29917;DHT22;16786;49.466;11.068;2023-01-16T08:10:09;2.20;99.90
29917;DHT22;16786;49.466;11.068;2023-01-16T08:12:37;2.20;99.90
29917;DHT22;16786;49.466;11.068;2023-01-16T08:15:05;2.30;99.90
29917;DHT22;16786;49.466;11.068;2023-01-16T08:17:33;2.40;99.90
29917;DHT22;16786;49.466;11.068;2023-01-16T08:20:01;2.40;99.90
29917;DHT22;16786;49.466;11.068;2023-01-16T08:22:28;2.50;99.90
29917;DHT22;16786;49.466;11.068;2023-01-16T08:24:56;2.50;99.90
29917;DHT22;16786;49.466;11.068;2023-01-16T08:27:24;2.60;99.90
29917;DHT22;16786;49.466;11.068;2023-01-16T08:29:51;2.60;99.90
29917;DHT22;16786;49.466;11.068;2023-01-16T08:32:19;2.60;99.90
29917;DHT22;16786;49.466;11.068;2023-01-16T08:34:46;2.70;99.90
29917;DHT22;16786;49.466;11.068;2023-01-16T08:37:13;2.70;99.90
29917;DHT22;16786;49.466;11.068;2023-01-16T08:39:41;2.70;99.90
29917;DHT22;16786;49.466;11.068;2023-01-16T08:42:09;2.90;99.90
29917;DHT22;16786;49.466;11.068;2023-01-16T08:44:54;3.00;99.90
29917;DHT22;16786;49.466;11.068;2023-01-16T08:47:40;3.10;99.90
29917;DHT22;16786;49.466;11.068;2023-01-16T08:50:26;3.20;99.90
29917;DHT22;16786;49.466;11.068;2023-01-16T08:53:12;3.30;99.90
29917;DHT22;16786;49.466;11.068;2023-01-16T08:55:39;3.40;99.90
29917;DHT22;16786;49.466;11.068;2023-01-16T08:58:07;3.40;99.90
29917;DHT22;16786;49.466;11.068;2023-01-16T09:00:34;3.50;99.90
29917;DHT22;16786;49.466;11.068;2023-01-16T09:03:02;3.60;99.90
29917;DHT22;16786;49.466;11.068;2023-01-16T09:05:30;3.60;99.90
29917;DHT22;16786;49.466;11.068;2023-01-16T09:07:57;3.80;99.90
29917;DHT22;16786;49.466;11.068;2023-01-16T09:10:25;3.90;99.90
29917;DHT22;16786;49.466;11.068;2023-01-16T09:12:52;4.00;99.90
29917;DHT22;16786;49.466;11.068;2023-01-16T09:15:38;4.10;99.90
29917;DHT22;16786;49.466;11.068;2023-01-16T09:18:05;4.20;99.90
29917;DHT22;16786;49.466;11.068;2023-01-16T09:20:33;4.40;99.90
29917;DHT22;16786;49.466;11.068;2023-01-16T09:23:01;4.60;99.90
29917;DHT22;16786;49.466;11.068;2023-01-16T09:25:30;4.60;99.90
29917;DHT22;16786;49.466;11.068;2023-01-16T09:27:58;4.70;99.90
29917;DHT22;16786;49.466;11.068;2023-01-16T09:30:27;4.80;99.90
29917;DHT22;16786;49.466;11.068;2023-01-16T09:32:54;4.90;99.90
29917;DHT22;16786;49.466;11.068;2023-01-16T09:35:22;4.90;99.90
29917;DHT22;16786;49.466;11.068;2023-01-16T09:37:49;5.10;99.90
29917;DHT22;16786;49.466;11.068;2023-01-16T09:40:19;5.10;99.90
29917;DHT22;16786;49.466;11.068;2023-01-16T09:45:59;5.50;99.90
29917;DHT22;16786;49.466;11.068;2023-01-16T09:48:33;5.70;99.90
29917;DHT22;16786;49.466;11.068;2023-01-16T09:51:13;5.70;99.90
29917;DHT22;16786;49.466;11.068;2023-01-16T09:53:48;5.70;99.90
29917;DHT22;16786;49.466;11.068;2023-01-16T09:56:40;5.90;99.90
29917;DHT22;16786;49.466;11.068;2023-01-16T09:59:46;5.90;99.90
29917;DHT22;16786;49.466;11.068;2023-01-16T10:02:26;6.10;99.90
29917;DHT22;16786;49.466;11.068;2023-01-16T10:04:55;6.20;99.90
29917;DHT22;16786;49.466;11.068;2023-01-16T10:07:45;6.20;99.90
29917;DHT22;16786;49.466;11.068;2023-01-16T10:13:15;6.10;99.90
29917;DHT22;16786;49.466;11.068;2023-01-16T10:16:08;6.10;99.90
29917;DHT22;16786;49.466;11.068;2023-01-16T10:21:26;6.10;99.90
29917;DHT22;16786;49.466;11.068;2023-01-16T10:29:28;6.40;99.90
29917;DHT22;16786;49.466;11.068;2023-01-16T10:32:11;6.50;99.90
29917;DHT22;16786;49.466;11.068;2023-01-16T10:37:10;6.90;99.90
29917;DHT22;16786;49.466;11.068;2023-01-16T10:39:38;7.00;99.90
29917;DHT22;16786;49.466;11.068;2023-01-16T10:44:56;7.30;99.90
29917;DHT22;16786;49.466;11.068;2023-01-16T10:47:43;7.50;99.90
29917;DHT22;16786;49.466;11.068;2023-01-16T10:50:29;7.60;99.90
29917;DHT22;16786;49.466;11.068;2023-01-16T10:53:08;7.80;99.90
29917;DHT22;16786;49.466;11.068;2023-01-16T10:55:38;8.30;99.90
29917;DHT22;16786;49.466;11.068;2023-01-16T10:58:24;8.60;99.90
29917;DHT22;16786;49.466;11.068;2023-01-16T11:01:05;9.00;99.90
29917;DHT22;16786;49.466;11.068;2023-01-16T11:03:36;8.80;99.90
29917;DHT22;16786;49.466;11.068;2023-01-16T11:08:34;8.70;99.90
29917;DHT22;16786;49.466;11.068;2023-01-16T11:11:03;9.10;99.90
29917;DHT22;16786;49.466;11.068;2023-01-16T11:13:32;9.60;99.90
29917;DHT22;16786;49.466;11.068;2023-01-16T11:16:26;9.70;99.90
29917;DHT22;16786;49.466;11.068;2023-01-16T11:19:19;9.30;99.90
29917;DHT22;16786;49.466;11.068;2023-01-16T11:21:56;9.00;99.90
29917;DHT22;16786;49.466;11.068;2023-01-16T11:24:39;9.20;99.90
29917;DHT22;16786;49.466;11.068;2023-01-16T11:27:13;9.60;99.90
29917;DHT22;16786;49.466;11.068;2023-01-16T11:29:42;10.30;99.90
29917;DHT22;16786;49.466;11.068;2023-01-16T11:32:13;11.20;99.90
29917;DHT22;16786;49.466;11.068;2023-01-16T11:34:46;11.80;99.90
29917;DHT22;16786;49.466;11.068;2023-01-16T11:37:15;12.10;99.90
29917;DHT22;16786;49.466;11.068;2023-01-16T11:39:47;12.50;99.90
29917;DHT22;16786;49.466;11.068;2023-01-16T11:42:14;12.80;99.90
29917;DHT22;16786;49.466;11.068;2023-01-16T11:45:12;12.30;99.90
29917;DHT22;16786;49.466;11.068;2023-01-16T11:48:01;12.00;99.90
29917;DHT22;16786;49.466;11.068;2023-01-16T11:51:00;11.50;99.90
29917;DHT22;16786;49.466;11.068;2023-01-16T11:53:31;10.50;99.90
29917;DHT22;16786;49.466;11.068;2023-01-16T12:02:20;8.70;99.90
29917;DHT22;16786;49.466;11.068;2023-01-16T12:10:32;7.60;99.90
29917;DHT22;16786;49.466;11.068;2023-01-16T12:13:05;7.40;99.90
29917;DHT22;16786;49.466;11.068;2023-01-16T12:16:14;7.20;99.90
29917;DHT22;16786;49.466;11.068;2023-01-16T12:24:26;7.00;99.90
29917;DHT22;16786;49.466;11.068;2023-01-16T12:32:39;7.40;99.90
29917;DHT22;16786;49.466;11.068;2023-01-16T12:35:33;7.40;99.90
29917;DHT22;16786;49.466;11.068;2023-01-16T12:38:18;7.30;99.90
29917;DHT22;16786;49.466;11.068;2023-01-16T12:43:41;7.20;99.90
29917;DHT22;16786;49.466;11.068;2023-01-16T12:46:19;7.00;99.90
29917;DHT22;16786;49.466;11.068;2023-01-16T12:49:28;6.90;99.90
29917;DHT22;16786;49.466;11.068;2023-01-16T12:55:12;6.70;99.90
29917;DHT22;16786;49.466;11.068;2023-01-16T12:57:59;6.70;99.90
29917;DHT22;16786;49.466;11.068;2023-01-16T13:03:36;6.60;99.90
29917;DHT22;16786;49.466;11.068;2023-01-16T13:06:12;6.60;99.90
29917;DHT22;16786;49.466;11.068;2023-01-16T13:08:45;6.50;99.90
29917;DHT22;16786;49.466;11.068;2023-01-16T13:11:27;6.40;99.90
29917;DHT22;16786;49.466;11.068;2023-01-16T13:14:31;6.50;99.90
29917;DHT22;16786;49.466;11.068;2023-01-16T13:17:14;6.40;99.90
29917;DHT22;16786;49.466;11.068;2023-01-16T13:19:56;6.30;99.90
29917;DHT22;16786;49.466;11.068;2023-01-16T13:22:30;6.30;99.90
29917;DHT22;16786;49.466;11.068;2023-01-16T13:25:13;6.40;99.90
29917;DHT22;16786;49.466;11.068;2023-01-16T13:27:44;6.40;99.90
29917;DHT22;16786;49.466;11.068;2023-01-16T13:30:19;6.40;99.90
29917;DHT22;16786;49.466;11.068;2023-01-16T13:32:59;6.40;99.90
29917;DHT22;16786;49.466;11.068;2023-01-16T13:35:41;6.40;99.90
29917;DHT22;16786;49.466;11.068;2023-01-16T13:44:12;6.20;99.90
29917;DHT22;16786;49.466;11.068;2023-01-16T13:47:12;6.20;99.90
29917;DHT22;16786;49.466;11.068;2023-01-16T13:49:41;6.20;99.90
29917;DHT22;16786;49.466;11.068;2023-01-16T13:52:33;6.20;99.90
29917;DHT22;16786;49.466;11.068;2023-01-16T13:55:02;6.10;99.90
29917;DHT22;16786;49.466;11.068;2023-01-16T13:57:33;6.10;99.90
29917;DHT22;16786;49.466;11.068;2023-01-16T14:00:09;6.10;99.90
29917;DHT22;16786;49.466;11.068;2023-01-16T14:02:41;6.10;99.90
29917;DHT22;16786;49.466;11.068;2023-01-16T14:10:46;6.00;99.90
29917;DHT22;16786;49.466;11.068;2023-01-16T14:13:21;6.00;99.90
29917;DHT22;16786;49.466;11.068;2023-01-16T14:15:54;6.10;99.90
29917;DHT22;16786;49.466;11.068;2023-01-16T14:24:05;5.90;99.90
29917;DHT22;16786;49.466;11.068;2023-01-16T14:26:49;6.00;99.90
29917;DHT22;16786;49.466;11.068;2023-01-16T14:29:21;6.00;99.90
29917;DHT22;16786;49.466;11.068;2023-01-16T14:37:21;6.10;99.90
29917;DHT22;16786;49.466;11.068;2023-01-16T14:39:55;6.10;99.90
29917;DHT22;16786;49.466;11.068;2023-01-16T14:45:30;6.00;99.90
29917;DHT22;16786;49.466;11.068;2023-01-16T14:56:46;5.90;99.90
29917;DHT22;16786;49.466;11.068;2023-01-16T14:59:31;5.90;99.90
29917;DHT22;16786;49.466;11.068;2023-01-16T15:02:23;5.90;99.90
29917;DHT22;16786;49.466;11.068;2023-01-16T15:07:31;5.80;99.90
29917;DHT22;16786;49.466;11.068;2023-01-16T15:10:05;5.80;99.90
29917;DHT22;16786;49.466;11.068;2023-01-16T15:12:40;5.80;99.90
29917;DHT22;16786;49.466;11.068;2023-01-16T15:15:28;5.80;99.90
29917;DHT22;16786;49.466;11.068;2023-01-16T15:17:58;5.80;99.90
29917;DHT22;16786;49.466;11.068;2023-01-16T15:20:45;5.80;99.90
29917;DHT22;16786;49.466;11.068;2023-01-16T15:23:32;5.90;99.90
29917;DHT22;16786;49.466;11.068;2023-01-16T15:31:19;5.80;99.90
29917;DHT22;16786;49.466;11.068;2023-01-16T15:36:50;5.80;99.90
29917;DHT22;16786;49.466;11.068;2023-01-16T15:39:37;5.80;99.90
29917;DHT22;16786;49.466;11.068;2023-01-16T15:42:11;5.70;99.90
29917;DHT22;16786;49.466;11.068;2023-01-16T15:45:14;5.70;99.90
29917;DHT22;16786;49.466;11.068;2023-01-16T15:51:00;5.40;99.90
29917;DHT22;16786;49.466;11.068;2023-01-16T15:53:40;5.40;99.90
29917;DHT22;16786;49.466;11.068;2023-01-16T15:57:10;5.40;99.90
29917;DHT22;16786;49.466;11.068;2023-01-16T16:01:49;5.50;99.90
29917;DHT22;16786;49.466;11.068;2023-01-16T16:04:17;5.50;99.90
29917;DHT22;16786;49.466;11.068;2023-01-16T16:06:45;5.60;99.90
29917;DHT22;16786;49.466;11.068;2023-01-16T16:09:17;5.80;99.90
29917;DHT22;16786;49.466;11.068;2023-01-16T16:11:46;5.80;99.90
29917;DHT22;16786;49.466;11.068;2023-01-16T16:14:36;5.80;99.90
29917;DHT22;16786;49.466;11.068;2023-01-16T16:17:30;5.80;99.90
29917;DHT22;16786;49.466;11.068;2023-01-16T16:20:30;5.80;99.90
29917;DHT22;16786;49.466;11.068;2023-01-16T16:23:05;5.80;99.90
29917;DHT22;16786;49.466;11.068;2023-01-16T16:33:52;5.40;99.90
29917;DHT22;16786;49.466;11.068;2023-01-16T16:36:20;5.40;99.90
29917;DHT22;16786;49.466;11.068;2023-01-16T16:38:50;5.40;99.90
29917;DHT22;16786;49.466;11.068;2023-01-16T16:44:24;5.50;99.90
29917;DHT22;16786;49.466;11.068;2023-01-16T16:46:56;5.50;99.90
29917;DHT22;16786;49.466;11.068;2023-01-16T16:51:51;5.30;99.90
29917;DHT22;16786;49.466;11.068;2023-01-16T16:54:25;5.30;99.90
29917;DHT22;16786;49.466;11.068;2023-01-16T16:56:56;5.30;99.90
29917;DHT22;16786;49.466;11.068;2023-01-16T16:59:26;5.30;99.90
29917;DHT22;16786;49.466;11.068;2023-01-16T17:01:57;5.20;99.90
29917;DHT22;16786;49.466;11.068;2023-01-16T17:04:30;5.10;99.90
29917;DHT22;16786;49.466;11.068;2023-01-16T17:06:58;5.10;99.90
29917;DHT22;16786;49.466;11.068;2023-01-16T17:09:26;5.00;99.90
29917;DHT22;16786;49.466;11.068;2023-01-16T17:12:00;5.00;99.90
29917;DHT22;16786;49.466;11.068;2023-01-16T17:14:35;5.00;99.90
29917;DHT22;16786;49.466;11.068;2023-01-16T17:17:03;4.90;99.90
29917;DHT22;16786;49.466;11.068;2023-01-16T17:19:31;4.90;99.90
29917;DHT22;16786;49.466;11.068;2023-01-16T17:21:58;4.90;99.90
29917;DHT22;16786;49.466;11.068;2023-01-16T17:24:26;5.00;99.90
29917;DHT22;16786;49.466;11.068;2023-01-16T17:26:53;5.00;99.90
29917;DHT22;16786;49.466;11.068;2023-01-16T17:29:20;4.90;99.90
29917;DHT22;16786;49.466;11.068;2023-01-16T17:31:48;5.00;99.90
29917;DHT22;16786;49.466;11.068;2023-01-16T17:34:17;5.00;99.90
29917;DHT22;16786;49.466;11.068;2023-01-16T17:36:46;4.90;99.90
29917;DHT22;16786;49.466;11.068;2023-01-16T17:39:13;4.90;99.90
29917;DHT22;16786;49.466;11.068;2023-01-16T17:41:41;4.90;99.90
29917;DHT22;16786;49.466;11.068;2023-01-16T17:44:22;5.00;99.90
29917;DHT22;16786;49.466;11.068;2023-01-16T17:47:10;4.90;99.90
29917;DHT22;16786;49.466;11.068;2023-01-16T17:49:37;4.90;99.90
29917;DHT22;16786;49.466;11.068;2023-01-16T17:52:24;4.80;99.90
29917;DHT22;16786;49.466;11.068;2023-01-16T17:54:51;5.00;99.90
29917;DHT22;16786;49.466;11.068;2023-01-16T17:57:37;4.90;99.90
29917;DHT22;16786;49.466;11.068;2023-01-16T18:00:05;4.90;99.90
29917;DHT22;16786;49.466;11.068;2023-01-16T18:02:33;5.00;99.90
29917;DHT22;16786;49.466;11.068;2023-01-16T18:05:01;4.90;99.90
29917;DHT22;16786;49.466;11.068;2023-01-16T18:07:28;4.90;99.90
29917;DHT22;16786;49.466;11.068;2023-01-16T18:09:55;4.80;99.90
29917;DHT22;16786;49.466;11.068;2023-01-16T18:12:23;4.80;99.90
29917;DHT22;16786;49.466;11.068;2023-01-16T18:15:09;4.80;99.90
29917;DHT22;16786;49.466;11.068;2023-01-16T18:17:55;4.80;99.90
29917;DHT22;16786;49.466;11.068;2023-01-16T18:20:24;4.80;99.90
29917;DHT22;16786;49.466;11.068;2023-01-16T18:22:51;4.90;99.90
29917;DHT22;16786;49.466;11.068;2023-01-16T18:25:19;4.90;99.90
29917;DHT22;16786;49.466;11.068;2023-01-16T18:27:46;4.90;99.90
29917;DHT22;16786;49.466;11.068;2023-01-16T18:30:14;5.00;99.90
29917;DHT22;16786;49.466;11.068;2023-01-16T18:32:41;5.00;99.90
29917;DHT22;16786;49.466;11.068;2023-01-16T18:35:08;5.00;99.90
29917;DHT22;16786;49.466;11.068;2023-01-16T18:37:38;5.00;99.90
29917;DHT22;16786;49.466;11.068;2023-01-16T18:40:12;4.90;99.90
29917;DHT22;16786;49.466;11.068;2023-01-16T18:42:59;4.90;99.90
29917;DHT22;16786;49.466;11.068;2023-01-16T18:45:45;4.90;99.90
29917;DHT22;16786;49.466;11.068;2023-01-16T18:48:30;4.90;99.90
29917;DHT22;16786;49.466;11.068;2023-01-16T18:51:17;5.00;99.90
29917;DHT22;16786;49.466;11.068;2023-01-16T18:54:19;4.90;99.90
29917;DHT22;16786;49.466;11.068;2023-01-16T18:57:15;4.90;99.90
29917;DHT22;16786;49.466;11.068;2023-01-16T19:00:12;4.90;99.90
29917;DHT22;16786;49.466;11.068;2023-01-16T19:02:58;4.90;99.90
29917;DHT22;16786;49.466;11.068;2023-01-16T19:05:26;4.90;99.90
29917;DHT22;16786;49.466;11.068;2023-01-16T19:07:56;4.90;99.90
29917;DHT22;16786;49.466;11.068;2023-01-16T19:10:29;5.00;99.90
29917;DHT22;16786;49.466;11.068;2023-01-16T19:12:59;5.00;99.90